Abbotsford, Canada
Current Conditions -  °F | °C
As of 9:00 AM on Wednesday 26 Nov 2014 (Local Time) from CYXX Reporting Station
Haze Haze  
Wind Chill: 38°   Ceiling: 6000
Heat Index: 41°   Visibility: 5mi
Dew Point: 41°   Wind: 5mph
Humidity: 100%   Direction: 70°ENE
Pressure: 30.06"   Gusts: NA
Location:  49.05°N, 122.33°W
Report Text: CYXX 261700Z 07004KT 020V080 5SM BR FEW003 SCT025 BKN060 OVC120 05/05 A3006 RMK SF1SC2SC4AC1 PRESFR SLP181
Loading
Personal Weather Stations






























Interactive Weather Map New forecast layout! Learn more

10-Day Weather Forecast

Advertisements
Track Severe Weather on mobile